This is the latest recevied weather packets stored in our database for station/object N7CEE-2. If no packets are shown the sender has not sent any weather packets the latest 10 day(s).
| Time | Temp. | Humidity | Pressure | Rain* | Wind** | Luminosity | Snow |
|---|---|---|---|---|---|---|---|
| 1777730268 | 23.33° C | 31% | 1016 hPa | 0 mm | - | 102 W/m² | - |
| 1777729965 | 22.78° C | 33% | 1015.8 hPa | 0 mm | - | 91 W/m² | - |
| 1777729661 | 22.22° C | 32% | 1015.8 hPa | 0 mm | - | 79 W/m² | - |
| 1777729358 | 21.67° C | 34% | 1015.7 hPa | 0 mm | - | 67 W/m² | - |
| 1777729055 | 21.67° C | 34% | 1015.7 hPa | 0 mm | - | 56 W/m² | - |
| 1777728752 | 21.11° C | 33% | 1015.7 hPa | 0 mm | - | 46 W/m² | - |
| 1777728448 | 20.56° C | 32% | 1015.5 hPa | 0 mm | - | 40 W/m² | - |
| 1777728146 | 20.56° C | 33% | 1015.6 hPa | 0 mm | - | 36 W/m² | - |
| 1777727842 | 20.56° C | 33% | 1015.4 hPa | 0 mm | - | 32 W/m² | - |
| 1777727540 | 20° C | 34% | 1015.2 hPa | 0 mm | - | 28 W/m² | - |
| 1777727237 | 20.56° C | 35% | 1015.1 hPa | 0 mm | - | 24 W/m² | - |
| 1777726934 | 20.56° C | 33% | 1015.3 hPa | 0 mm | - | 20 W/m² | - |
| 1777726630 | 20.56° C | 30% | 1014.9 hPa | 0 mm | - | 16 W/m² | - |
| 1777726329 | 20.56° C | 30% | 1014.9 hPa | 0 mm | - | 12 W/m² | - |
| 1777726025 | 20.56° C | 31% | 1014.9 hPa | 0 mm | - | 8 W/m² | - |
| 1777725722 | 21.11° C | 32% | 1014.8 hPa | 0 mm | - | 5 W/m² | - |
| 1777725420 | 20.56° C | 31% | 1014.7 hPa | 0 mm | - | 3 W/m² | - |
| 1777725117 | 20.56° C | 31% | 1014.8 hPa | 0 mm | - | 1 W/m² | - |
| 1777724813 | 21.11° C | 32% | 1014.7 hPa | 0 mm | - | 1 W/m² | - |
| 1777724510 | 21.11° C | 30% | 1014.6 hPa | 0 mm | - | 0 W/m² | - |
| 1777724208 | 22.22° C | 28% | 1014.5 hPa | 0 mm | - | 0 W/m² | - |
| 1777723906 | 22.22° C | 28% | 1014.4 hPa | 0 mm | - | 0 W/m² | - |
| 1777723602 | 22.22° C | 28% | 1014.4 hPa | 0 mm | - | 0 W/m² | - |
| 1777723299 | 22.22° C | 27% | 1014.4 hPa | 0 mm | - | 0 W/m² | - |
| 1777722996 | 21.67° C | 28% | 1014.4 hPa | 0 mm | - | 0 W/m² | - |
* Rain latest hour (hover to see other rain measurements)
** Current wind speed in m/s (hover to see current wind gust speed)